Llano, CA

3:01 AM PDT on September 22, 2014 (GMT -0700)
Brian Ranch Airport (CL13) | Change Station
CLOSE
Current Station
Personal Weather Station
Location: Llano, CA
Elevation: 3200 ft
Nearby Weather Stations

Elev 3200 ft 34.52 °N, 117.76 °W | Updated 6 minutes ago

Clear
Clear
63.9 °F
Feels Like 63.9 °F
N
0.0
Wind Variable Wind from SSE

Today
High -- | Low -- °F
--% Chance of Precip.
Yesterday
High -- | Low -- °F
Precip. -- in
6:39 AM 6:47 PM
Waning Crescent, 3% visible
Pressure 29.92 in
Visibility 10.0 miles
Clouds Clear
Dew Point 39 °F
Humidity 40%
Rainfall 0.00 in
Snow Depth 1 in , 0 in
UV 0 out of 12
Pollen 7.20 out of 12
Ozone Good
Flu Activity Not available.
METAR KGXA 220955Z AUTO VRB05KT 10SM CLR 16/05 A3004 RMK AO2 SLP130 T01630045 TSNO $

More Conditions Fewer Conditions

Pressure 29.92 in
Visibility 10.0 miles
Clouds Clear
Dew Point 39 °F
Humidity 40%
Rainfall 0.00 in
Snow Depth 1 in , 0 in
UV 0 out of 12
Pollen 7.20 out of 12
Ozone Good
Flu Activity Not available.
METAR KGXA 220955Z AUTO VRB05KT 10SM CLR 16/05 A3004 RMK AO2 SLP130 T01630045 TSNO $

More Conditions Fewer Conditions

10-Day Weather Forecast

Almanac

Astronomy

Sep. 22, 2014 Rise Set
Actual Time 6:39 AM PDT 6:47 PM PDT
Civil Twilight 6:14 AM PDT 7:12 PM PDT
Nautical Twilight 5:44 AM PDT 7:42 PM PDT
Astronomical Twilight 5:15 AM PDT 8:11 PM PDT
Moon 5:14 AM PDT 5:56 PM PDT
Length of Visible Light 12h 58m
Length of Day
12h 08m
Tomorrow will be 2m 8s shorter.
Waning Crescent, 3% of the Moon is Illuminated
Today
Waning Crescent
Sep 24
New
Oct 1
First Quarter
Oct 8
Full
Oct 15
Last Quarter

Today's Extremes

State Highs State Lows

Community

WunderPhotos

Upload Photos

1,755,403 photos uploaded!

Nearby

Air Quality

  Air Quality AQ Index Pollutant
Yesterday Good
OZONE
Yesterday Good
PM10
Current Good
OZONE
Monday Good
PM10
Monday Good
OZONE
Monday Good
CO
Monday Good
NO2

Snow Depth

Station Depth Elevation
Leavitt Meadows 1 in 7200 ft
Leavitt Lake 1 in 9400 ft
Tahoe City Cross 0 in 6750 ft
Spratt Creek 1 in 6200 ft
Rubicon #2 0 in 7500 ft

Earthquake Activity

City Distance Mag. Time & Date
Borrego Springs, California 120 miles 2.6 7:34 AM PDT
2014-09-21
Inyokern, California 107 miles 3.1 5:33 PM PDT
2014-09-19
Aguanga, California 91 miles 2.5 1:38 AM PDT
2014-09-19
Corcoran, California 150 miles 2.9 3:59 PM PDT
2014-09-18
Minimum magnitude displayed is 2.5.

Coastal Water Temperatures

Place Temperature
No Stations Reporting

Nearby Weather Stations